Airport View

Enter AWOS ICAO identifier for current METAR.

ex. KFNL

KSBM 080901Z AUTO 11003KT 1/4SM FG VV002 07/05 A2970 RMK AO2 T00670050

8 Apr 2020 09:27

Frequency: 110.0

Phone: 920-467-0744

Other Area AWOS: KMTW - KETB - KFLD - KOSH

TAF AMD KATW 080901Z 0809/0906 31004KT 1SM BR BKN003 TEMPO 0810/0812 1/2SM FG OVC002 FM081300 23008KT P6SM SCT150 FM081900 29013G19KT P6SM -SHRA BKN070